Time;durP1;ratioP1;P1;durP2;ratioP2;P2;SDS_P1;SDS_P2;PMS_P1;PMS_P2;Temp;Humidity;BMP_temperature;BMP_pressure;BME280_temperature;BME280_humidity;BME280_pressure;Samples;Min_cycle;Max_cycle;Signal;HPM_P1;HPM_P2
2023/01/21 00:01:15;;;;;;;;;12.75;10.25;;;;;5.86;70.28;101762.16;5077098;28;45541;-49
2023/01/21 00:03:41;;;;;;;;;10.75;8.00;;;;;5.79;70.67;101747.63;5077494;28;45520;-54
2023/01/21 00:06:06;;;;;;;;;15.50;11.25;;;;;5.87;70.02;101759.41;5077718;28;45330;-47
2023/01/21 00:08:32;;;;;;;;;13.25;8.75;;;;;5.79;70.66;101755.53;5076952;28;46723;-46
2023/01/21 00:11:10;;;;;;;;;10.00;10.00;;;;;5.83;70.76;101759.69;5077095;28;45321;-43
2023/01/21 00:13:36;;;;;;;;;14.75;11.25;;;;;5.86;70.76;101763.00;5077447;28;45303;-46
2023/01/21 00:16:03;;;;;;;;;18.25;12.00;;;;;5.90;71.05;101764.53;5077268;28;45428;-47
2023/01/21 00:18:29;;;;;;;;;12.25;11.00;;;;;5.93;71.07;101768.78;5076860;28;47327;-44
2023/01/21 00:20:54;;;;;;;;;17.00;12.50;;;;;5.91;71.45;101760.09;5077072;28;45422;-43
2023/01/21 00:23:20;;;;;;;;;19.25;17.25;;;;;5.88;71.56;101770.84;5077045;28;45414;-45
2023/01/21 00:25:45;;;;;;;;;20.50;14.75;;;;;5.84;72.08;101775.44;5077288;28;45341;-46
2023/01/21 00:28:10;;;;;;;;;19.50;10.75;;;;;5.85;71.81;101771.84;5075866;28;46249;-44
2023/01/21 00:30:36;;;;;;;;;12.50;10.75;;;;;5.88;71.56;101762.91;5076866;28;45483;-44
2023/01/21 00:33:02;;;;;;;;;19.00;13.75;;;;;5.86;71.99;101763.00;5076981;28;45309;-45
2023/01/21 00:35:28;;;;;;;;;15.50;13.50;;;;;5.89;71.65;101772.53;5076763;28;45400;-45
2023/01/21 00:37:53;;;;;;;;;16.25;14.75;;;;;5.90;72.01;101772.44;5076710;28;45978;-45
2023/01/21 00:40:19;;;;;;;;;23.75;18.50;;;;;5.79;71.59;101758.19;5076744;28;45208;-50
2023/01/21 00:42:44;;;;;;;;;16.75;12.75;;;;;5.91;71.70;101781.22;5076771;28;45452;-47
2023/01/21 00:45:09;;;;;;;;;13.00;10.00;;;;;5.90;71.75;101798.84;5058741;28;45636;-48
2023/01/21 00:47:35;;;;;;;;;19.50;11.00;;;;;5.93;71.20;101793.41;5076683;28;46048;-46
2023/01/21 00:50:00;;;;;;;;;15.25;12.50;;;;;5.90;71.46;101792.69;5075971;28;48915;-45
2023/01/21 00:52:25;;;;;;;;;12.25;10.50;;;;;5.91;71.69;101797.06;5076706;28;45345;-47
2023/01/21 00:54:51;;;;;;;;;11.50;11.00;;;;;5.90;71.33;101803.25;5076858;28;45218;-46
2023/01/21 00:57:16;;;;;;;;;11.25;10.50;;;;;5.88;71.62;101800.72;5076602;28;45448;-48
2023/01/21 00:59:41;;;;;;;;;15.75;14.75;;;;;5.92;71.30;101812.00;5076287;28;45443;-59
2023/01/21 01:02:07;;;;;;;;;15.50;12.25;;;;;5.81;71.06;101785.31;5076481;28;45344;-45
2023/01/21 01:04:33;;;;;;;;;12.25;9.00;;;;;5.93;71.10;101803.97;5076827;28;45373;-46
2023/01/21 01:06:58;;;;;;;;;17.75;15.25;;;;;5.92;71.57;101814.63;5076109;28;47269;-48
2023/01/21 01:09:23;;;;;;;;;8.75;8.50;;;;;5.93;71.55;101816.31;5076508;28;45430;-53
2023/01/21 01:11:49;;;;;;;;;11.00;8.00;;;;;5.93;71.61;101816.31;5076574;28;45478;-46
2023/01/21 01:14:14;;;;;;;;;9.00;6.25;;;;;5.91;71.39;101818.19;5076605;28;45356;-46
2023/01/21 01:16:39;;;;;;;;;15.50;11.00;;;;;5.85;71.54;101813.25;5076123;28;45383;-50
2023/01/21 01:19:05;;;;;;;;;8.00;7.75;;;;;5.89;71.85;101817.41;5076133;28;46279;-48
2023/01/21 01:21:30;;;;;;;;;13.25;8.75;;;;;5.89;71.13;101812.13;5076504;28;45427;-49
2023/01/21 01:23:59;;;;;;;;;8.00;7.00;;;;;5.90;71.36;101832.31;5076511;28;45391;-50
2023/01/21 01:26:25;;;;;;;;;12.50;8.00;;;;;5.90;71.39;101837.59;5076077;28;45861;-42
2023/01/21 01:28:51;;;;;;;;;5.75;5.75;;;;;5.90;71.59;101835.84;5075947;28;45475;-47
2023/01/21 01:31:18;;;;;;;;;10.75;8.25;;;;;5.90;71.35;101837.59;5076068;28;45679;-44
2023/01/21 01:33:44;;;;;;;;;7.00;7.00;;;;;5.90;70.97;101834.94;5076393;28;45345;-52
2023/01/21 01:36:16;;;;;;;;;17.25;17.25;;;;;5.88;71.21;101840.34;5075511;28;46455;-44
2023/01/21 01:38:41;;;;;;;;;14.75;11.50;;;;;5.86;71.28;101841.38;5075501;28;45363;-43
2023/01/21 01:41:07;;;;;;;;;9.25;9.25;;;;;5.89;71.13;101857.88;5076045;28;45327;-43
2023/01/21 01:43:52;;;;;;;;;9.00;9.00;;;;;5.85;70.80;101852.88;5076166;28;45416;-43
2023/01/21 01:46:18;;;;;;;;;14.25;12.25;;;;;5.84;70.83;101851.16;5075566;28;46352;-48
2023/01/21 01:48:56;;;;;;;;;11.00;8.75;;;;;5.81;71.23;101848.69;5075807;28;45498;-47
2023/01/21 01:51:29;;;;;;;;;12.25;11.00;;;;;5.81;70.44;101865.38;5075864;28;45875;-49
2023/01/21 01:53:54;;;;;;;;;12.00;7.75;;;;;5.81;70.22;101875.09;5075969;28;45417;-49
2023/01/21 01:56:20;;;;;;;;;11.00;10.00;;;;;5.80;69.94;101868.97;5075767;28;45962;-44
2023/01/21 01:58:47;;;;;;;;;19.50;11.00;;;;;5.79;70.26;101877.00;5075739;28;45313;-47
2023/01/21 02:01:12;;;;;;;;;15.00;12.50;;;;;5.79;69.89;101879.63;5075616;28;45366;-45
2023/01/21 02:03:45;;;;;;;;;8.00;6.00;;;;;5.76;69.36;101885.94;5075842;28;45472;-47
2023/01/21 02:06:12;;;;;;;;;17.50;11.75;;;;;5.68;69.69;101888.16;5075633;28;46157;-48
2023/01/21 02:08:39;;;;;;;;;14.00;11.00;;;;;5.55;68.63;101876.59;5075594;28;45315;-43
2023/01/21 02:11:12;;;;;;;;;9.00;8.75;;;;;5.61;68.83;101900.88;5075852;28;45356;-44
2023/01/21 02:13:41;;;;;;;;;12.50;11.25;;;;;5.58;67.75;101895.75;5075743;28;45220;-46
2023/01/21 02:16:24;;;;;;;;;10.25;10.25;;;;;5.50;67.68;101904.09;5075361;28;45468;-44
2023/01/21 02:19:07;;;;;;;;;11.00;8.50;;;;;5.50;67.32;101911.16;5075322;28;45407;-44
2023/01/21 02:21:50;;;;;;;;;12.25;8.25;;;;;5.49;67.15;101918.22;5075335;28;45357;-44
2023/01/21 02:24:31;;;;;;;;;14.00;11.00;;;;;5.52;67.07;101925.13;5074037;28;45229;-48
2023/01/21 02:27:31;;;;;;;;;21.00;13.25;;;;;5.55;66.85;101924.94;5075026;28;46376;-45
2023/01/21 02:30:21;;;;;;;;;15.00;12.00;;;;;5.56;68.22;101928.44;5075063;28;45296;-47
2023/01/21 02:33:14;;;;;;;;;11.25;10.75;;;;;5.55;67.59;101938.16;5075112;28;45317;-43
2023/01/21 02:36:02;;;;;;;;;16.25;12.75;;;;;5.53;67.27;101939.19;5075235;28;45750;-44
2023/01/21 02:38:50;;;;;;;;;18.50;16.25;;;;;5.49;67.70;101952.53;5074959;28;45503;-45
2023/01/21 02:41:26;;;;;;;;;14.25;11.50;;;;;5.51;67.59;101955.94;5074887;28;45522;-43
2023/01/21 02:44:31;;;;;;;;;16.00;11.00;;;;;5.49;67.15;101970.16;5074184;28;45373;-45
2023/01/21 02:47:05;;;;;;;;;12.25;11.00;;;;;5.46;67.05;101973.81;5056513;28;45403;-44
2023/01/21 02:49:37;;;;;;;;;14.50;12.00;;;;;5.41;66.58;101980.28;5074411;28;46966;-43
2023/01/21 02:52:02;;;;;;;;;12.75;11.00;;;;;5.36;66.79;101982.34;5077848;28;45652;-45
2023/01/21 02:54:39;;;;;;;;;12.00;11.25;;;;;5.31;67.00;101986.97;5078302;28;45325;-45
2023/01/21 02:57:07;;;;;;;;;14.25;11.75;;;;;5.26;66.93;101995.13;5078789;28;45406;-46
2023/01/21 02:59:34;;;;;;;;;17.00;11.50;;;;;5.20;66.56;101998.97;5076991;28;45405;-45
2023/01/21 03:02:08;;;;;;;;;7.50;4.75;;;;;5.18;66.74;102008.75;5077698;28;45262;-43
2023/01/21 03:05:05;;;;;;;;;15.50;10.50;;;;;5.12;66.18;102006.44;5078497;28;45344;-42
2023/01/21 03:07:39;;;;;;;;;14.50;12.00;;;;;4.96;66.38;102002.88;4995581;28;45235;-44
2023/01/21 03:10:10;;;;;;;;;12.50;10.50;;;;;5.01;65.97;102024.59;4995904;28;45432;-47
2023/01/21 03:12:58;;;;;;;;;18.00;12.75;;;;;4.99;66.75;102021.19;4995828;28;45353;-48
2023/01/21 03:18:28;;;;;;;;;15.50;13.75;;;;;4.91;65.77;102029.50;4995606;28;45515;-45
2023/01/21 03:21:07;;;;;;;;;14.25;11.75;;;;;4.80;65.86;102034.44;4995432;28;46183;-44
2023/01/21 03:23:37;;;;;;;;;16.50;14.75;;;;;4.78;65.82;102043.38;4995331;28;45453;-44
2023/01/21 03:26:04;;;;;;;;;14.50;11.25;;;;;4.75;65.07;102049.66;4995659;28;45394;-43
2023/01/21 03:28:33;;;;;;;;;19.50;15.50;;;;;4.70;64.42;102049.88;4995763;28;45475;-45
2023/01/21 03:31:10;;;;;;;;;17.75;14.00;;;;;4.60;64.81;102035.47;4995335;28;45541;-43
2023/01/21 03:33:40;;;;;;;;;19.75;15.25;;;;;4.70;64.96;102056.94;4995277;28;45472;-44
2023/01/21 03:36:15;;;;;;;;;24.00;16.25;;;;;4.69;63.95;102063.16;4995250;28;45303;-44
2023/01/21 03:38:48;;;;;;;;;17.50;15.00;;;;;4.65;64.61;102065.09;4995751;28;45581;-45
2023/01/21 03:41:22;;;;;;;;;23.50;14.00;;;;;4.64;64.01;102073.06;4995308;28;46294;-45
2023/01/21 03:43:47;;;;;;;;;29.00;17.00;;;;;4.63;64.85;102076.63;5033443;28;45341;-48
2023/01/21 03:46:23;;;;;;;;;23.00;17.50;;;;;4.63;64.60;102087.16;5077761;28;45362;-46
2023/01/21 03:49:03;;;;;;;;;18.00;14.75;;;;;4.57;64.33;102090.13;5077947;28;45329;-54
2023/01/21 03:51:35;;;;;;;;;17.25;15.25;;;;;4.50;64.54;102079.00;5077734;28;46391;-60
2023/01/21 03:54:00;;;;;;;;;29.00;20.25;;;;;4.46;64.33;102093.25;5077715;28;45455;-60
2023/01/21 03:56:26;;;;;;;;;19.00;14.00;;;;;4.39;63.65;102091.88;5077690;28;45334;-46
2023/01/21 03:58:52;;;;;;;;;16.50;13.25;;;;;4.20;62.35;102097.16;5077781;28;45464;-44
2023/01/21 04:01:18;;;;;;;;;22.00;17.75;;;;;4.06;62.67;102097.78;5077157;28;46168;-57
2023/01/21 04:03:43;;;;;;;;;17.25;16.25;;;;;3.84;62.97;102073.41;5077179;28;45370;-45
2023/01/21 04:06:19;;;;;;;;;15.75;15.75;;;;;3.82;62.92;102099.78;5077635;28;45505;-55
2023/01/21 04:08:45;;;;;;;;;22.00;13.25;;;;;3.70;62.65;102098.53;5077538;28;45396;-45
2023/01/21 04:11:11;;;;;;;;;20.00;16.00;;;;;3.59;64.03;102097.34;5076934;28;46283;-52
2023/01/21 04:13:36;;;;;;;;;20.50;14.25;;;;;3.46;63.19;102094.41;5077184;28;45389;-52
2023/01/21 04:16:02;;;;;;;;;26.25;19.00;;;;;3.42;62.94;102111.25;5077305;28;45770;-42
2023/01/21 04:18:27;;;;;;;;;18.00;13.50;;;;;3.36;64.45;102112.34;5077007;28;45351;-49
2023/01/21 04:20:53;;;;;;;;;15.25;15.25;;;;;3.29;63.56;102110.91;5076541;28;45337;-51
2023/01/21 04:23:18;;;;;;;;;21.75;17.75;;;;;3.31;63.66;102126.63;5077031;28;45438;-58
2023/01/21 04:25:46;;;;;;;;;26.50;16.00;;;;;3.32;63.81;102123.06;5077106;28;45717;-56
2023/01/21 04:28:12;;;;;;;;;24.75;20.50;;;;;3.34;64.21;102116.84;5077020;28;45476;-52
2023/01/21 04:30:37;;;;;;;;;17.50;14.00;;;;;3.38;63.55;102128.09;5076808;28;46276;-60
2023/01/21 04:33:02;;;;;;;;;20.00;20.00;;;;;3.37;64.56;102121.09;5076457;28;45392;-45
2023/01/21 04:35:28;;;;;;;;;31.25;18.75;;;;;3.36;63.55;102127.28;5076637;28;45422;-51
2023/01/21 04:37:53;;;;;;;;;24.00;17.25;;;;;3.34;64.74;102129.97;5058686;28;45338;-51
2023/01/21 04:40:18;;;;;;;;;27.00;20.00;;;;;3.31;65.08;102124.00;5076485;28;46202;-60
2023/01/21 04:42:44;;;;;;;;;22.50;17.50;;;;;3.30;65.13;102117.03;5076668;28;45395;-44
2023/01/21 04:45:10;;;;;;;;;28.25;18.75;;;;;3.33;64.64;102132.66;5076573;28;45360;-53
2023/01/21 04:47:40;;;;;;;;;30.00;22.25;;;;;3.31;65.40;102132.75;5077091;28;45385;-59
2023/01/21 04:50:06;;;;;;;;;27.00;23.75;;;;;3.29;65.45;102133.72;5076483;28;46366;-48
2023/01/21 04:52:31;;;;;;;;;20.00;18.00;;;;;3.28;65.04;102130.22;5057793;28;45265;-44
2023/01/21 04:54:57;;;;;;;;;23.50;20.50;;;;;3.23;64.71;102127.81;5076490;28;45446;-57
2023/01/21 04:57:22;;;;;;;;;24.25;19.75;;;;;3.19;65.55;102128.00;5076623;28;45391;-45
2023/01/21 04:59:47;;;;;;;;;25.75;17.50;;;;;3.17;65.98;102133.34;5076485;28;45308;-55
2023/01/21 05:02:13;;;;;;;;;34.50;22.75;;;;;3.10;65.08;102128.38;5076315;28;45663;-57
2023/01/21 05:04:38;;;;;;;;;25.00;20.50;;;;;3.12;65.71;102137.94;5076346;28;45344;-54
2023/01/21 05:07:04;;;;;;;;;26.75;22.25;;;;;3.04;65.22;102139.19;5076383;28;45284;-57
2023/01/21 05:09:29;;;;;;;;;29.00;22.50;;;;;3.09;65.63;102151.22;5076085;28;45974;-54
2023/01/21 05:11:55;;;;;;;;;30.25;21.25;;;;;3.00;65.23;102125.31;5076321;28;45491;-47
2023/01/21 05:14:20;;;;;;;;;31.50;24.75;;;;;3.12;65.32;102145.81;5075570;28;45417;-58
2023/01/21 05:16:45;;;;;;;;;25.25;19.00;;;;;3.04;65.16;102133.91;5076496;28;45441;-46
2023/01/21 05:19:11;;;;;;;;;23.25;18.75;;;;;3.08;66.02;102151.28;5075795;28;46587;-47
2023/01/21 05:21:36;;;;;;;;;25.50;21.00;;;;;2.98;65.92;102135.00;5076138;28;45446;-46
2023/01/21 05:24:02;;;;;;;;;28.75;21.50;;;;;3.03;65.17;102156.69;5076046;28;45468;-48
2023/01/21 05:26:27;;;;;;;;;34.50;24.25;;;;;2.94;65.69;102147.41;5076057;28;45423;-56
2023/01/21 05:28:52;;;;;;;;;21.25;17.50;;;;;2.94;65.59;102147.41;5075857;28;45399;-59
2023/01/21 05:31:17;;;;;;;;;32.00;23.75;;;;;2.90;66.06;102158.13;5075791;28;45329;-60
2023/01/21 05:33:44;;;;;;;;;21.75;17.50;;;;;2.87;65.86;102164.38;5075995;28;45656;-52
2023/01/21 05:36:10;;;;;;;;;20.00;16.00;;;;;2.83;66.22;102161.94;5075567;28;45369;-58
2023/01/21 05:38:35;;;;;;;;;27.25;18.50;;;;;2.80;66.28;102167.31;5075795;28;47096;-59
2023/01/21 05:41:02;;;;;;;;;26.75;21.50;;;;;2.60;66.27;102145.31;5075874;28;45340;-53
2023/01/21 05:43:28;;;;;;;;;19.75;17.00;;;;;2.73;65.56;102171.94;5076013;28;45437;-53
2023/01/21 05:45:54;;;;;;;;;25.50;23.50;;;;;2.64;65.53;102169.69;5075972;28;45419;-45
2023/01/21 05:48:19;;;;;;;;;22.00;20.25;;;;;2.59;65.87;102175.13;5075260;28;47045;-50
2023/01/21 05:50:45;;;;;;;;;27.25;20.00;;;;;2.65;66.04;102189.78;5075749;28;45402;-50
2023/01/21 05:53:10;;;;;;;;;32.50;19.75;;;;;2.60;66.40;102191.75;5075883;28;45396;-49
2023/01/21 05:55:36;;;;;;;;;26.50;22.00;;;;;2.58;66.53;102193.59;5075912;28;45358;-53
2023/01/21 05:58:02;;;;;;;;;26.25;22.00;;;;;2.55;66.59;102193.69;5075262;28;47371;-55
2023/01/21 06:00:27;;;;;;;;;28.75;17.50;;;;;2.53;66.61;102198.13;5074567;28;45417;-45
2023/01/21 06:02:53;;;;;;;;;26.50;25.00;;;;;2.46;67.03;102187.03;5075560;28;45419;-52
2023/01/21 06:05:18;;;;;;;;;28.75;19.00;;;;;2.48;66.70;102198.31;5075843;28;45303;-58
2023/01/21 06:07:43;;;;;;;;;30.50;23.75;;;;;2.48;66.91;102198.31;5074249;28;46273;-53
2023/01/21 06:10:09;;;;;;;;;27.00;24.75;;;;;2.45;67.11;102206.34;5075451;28;45297;-61
2023/01/21 06:12:34;;;;;;;;;32.00;24.00;;;;;2.41;67.22;102202.97;5075707;28;45301;-60
2023/01/21 06:15:00;;;;;;;;;22.25;19.50;;;;;2.41;66.83;102208.22;5075554;28;45393;-59
2023/01/21 06:17:25;;;;;;;;;25.50;23.25;;;;;2.40;66.88;102216.13;5075263;28;46172;-58
2023/01/21 06:19:51;;;;;;;;;15.75;15.75;;;;;2.38;67.60;102212.72;5075142;28;45243;-47
2023/01/21 06:22:17;;;;;;;;;25.50;20.00;;;;;2.37;67.41;102216.28;5075262;28;45389;-53
2023/01/21 06:24:42;;;;;;;;;25.25;25.00;;;;;2.32;67.47;102216.47;5075624;28;45423;-44
2023/01/21 06:27:08;;;;;;;;;27.75;21.25;;;;;2.36;67.60;102225.06;5078405;28;46042;-43
2023/01/21 06:29:33;;;;;;;;;33.00;22.00;;;;;2.36;68.01;102232.94;5078745;28;45351;-47
2023/01/21 06:31:59;;;;;;;;;33.25;24.00;;;;;2.33;68.04;102233.91;5078645;28;45376;-59
2023/01/21 06:34:24;;;;;;;;;23.50;21.75;;;;;2.21;67.88;102210.75;5078774;28;45331;-60
2023/01/21 06:36:49;;;;;;;;;31.50;25.50;;;;;2.27;68.06;102230.66;5078385;28;45401;-52
2023/01/21 06:39:15;;;;;;;;;33.50;20.75;;;;;2.30;68.35;102230.53;5078459;28;45341;-58
2023/01/21 06:41:40;;;;;;;;;30.75;24.00;;;;;2.29;68.19;102240.19;5078535;28;45409;-58
2023/01/21 06:44:06;;;;;;;;;31.75;27.00;;;;;2.18;68.46;102223.97;5078807;28;45403;-59
2023/01/21 06:46:31;;;;;;;;;20.25;15.25;;;;;2.25;68.42;102236.81;5078609;28;46321;-55
2023/01/21 06:48:57;;;;;;;;;23.75;20.50;;;;;2.27;68.25;102246.41;5078182;28;45421;-56
2023/01/21 06:51:22;;;;;;;;;34.75;25.00;;;;;2.25;68.36;102252.56;5078573;28;45721;-45
2023/01/21 06:53:47;;;;;;;;;35.50;29.00;;;;;2.22;68.66;102244.81;5077830;28;45536;-46
2023/01/21 06:56:13;;;;;;;;;29.25;23.00;;;;;2.24;68.74;102256.13;5078180;28;46242;-57
2023/01/21 06:58:38;;;;;;;;;31.75;23.50;;;;;2.22;68.88;102255.31;5076537;28;49133;-60
2023/01/21 07:01:03;;;;;;;;;41.00;27.25;;;;;2.27;68.00;102262.16;5060153;28;45364;-53
2023/01/21 07:03:29;;;;;;;;;28.50;24.25;;;;;2.30;69.03;102272.56;5077797;28;45554;-44
2023/01/21 07:05:54;;;;;;;;;38.75;29.50;;;;;2.33;68.59;102267.19;5078010;28;46066;-47
2023/01/21 07:08:20;;;;;;;;;38.75;25.25;;;;;2.35;68.59;102279.34;5077922;28;45218;-45
2023/01/21 07:10:45;;;;;;;;;41.50;27.25;;;;;2.42;68.61;102277.38;5078190;28;45314;-54
2023/01/21 07:13:10;;;;;;;;;39.50;30.50;;;;;2.41;68.51;102279.13;5078503;28;45314;-45
2023/01/21 07:15:36;;;;;;;;;31.50;25.25;;;;;2.41;68.83;102287.00;5077951;28;45619;-43
2023/01/21 07:18:01;;;;;;;;;35.00;25.50;;;;;2.40;68.30;102294.94;5078032;28;45347;-44
2023/01/21 07:20:27;;;;;;;;;37.75;23.50;;;;;2.39;68.49;102303.72;5077698;28;45411;-44
2023/01/21 07:22:52;;;;;;;;;35.25;23.50;;;;;2.38;68.91;102305.50;5078166;28;45396;-44
2023/01/21 07:25:18;;;;;;;;;42.25;33.50;;;;;2.37;68.71;102309.06;5077638;28;46058;-46
2023/01/21 07:27:43;;;;;;;;;39.75;30.75;;;;;2.36;69.03;102309.97;5077034;28;45702;-45
2023/01/21 07:30:19;;;;;;;;;32.50;27.50;;;;;2.36;69.12;102316.97;5077995;28;45415;-43
2023/01/21 07:32:45;;;;;;;;;43.00;30.25;;;;;2.33;68.67;102317.94;5077943;28;45426;-50
2023/01/21 07:35:12;;;;;;;;;36.75;26.00;;;;;2.35;68.47;102329.25;5077379;28;46145;-49
2023/01/21 07:37:37;;;;;;;;;34.00;27.75;;;;;2.31;68.82;102332.03;5077021;28;45509;-44
2023/01/21 07:40:03;;;;;;;;;21.75;14.75;;;;;2.30;68.82;102338.22;5077096;28;45305;-44
2023/01/21 07:42:28;;;;;;;;;40.25;27.75;;;;;2.29;69.15;102339.97;5077785;28;45595;-46
2023/01/21 07:44:53;;;;;;;;;43.50;33.25;;;;;2.27;69.22;102338.31;5077189;28;46251;-44
2023/01/21 07:47:19;;;;;;;;;42.00;30.50;;;;;2.27;69.32;102330.44;5076399;28;45409;-44
2023/01/21 07:49:44;;;;;;;;;36.25;34.00;;;;;2.31;69.21;102353.91;5076878;28;45377;-46
2023/01/21 07:52:09;;;;;;;;;37.00;22.75;;;;;2.35;68.98;102354.66;5077490;28;45374;-43
2023/01/21 07:54:35;;;;;;;;;40.25;26.25;;;;;2.30;69.33;102343.47;5076561;28;47295;-44
2023/01/21 07:57:00;;;;;;;;;34.25;23.75;;;;;2.21;69.04;102334.13;5076451;28;45419;-45
2023/01/21 07:59:25;;;;;;;;;51.00;29.50;;;;;2.40;69.08;102366.72;5076495;28;45585;-44
2023/01/21 08:01:51;;;;;;;;;32.00;29.50;;;;;2.41;69.08;102363.19;5077345;28;45438;-54
2023/01/21 08:04:16;;;;;;;;;44.75;34.00;;;;;2.45;68.83;102361.31;5077195;28;45431;-45
2023/01/21 08:06:41;;;;;;;;;40.00;30.75;;;;;2.49;68.56;102362.91;5077087;28;45270;-44
2023/01/21 08:09:08;;;;;;;;;44.75;31.25;;;;;2.57;68.90;102381.88;5076701;28;45238;-43
2023/01/21 08:11:33;;;;;;;;;41.50;37.00;;;;;2.62;68.19;102385.19;5076277;28;45416;-45
2023/01/21 08:13:59;;;;;;;;;56.00;40.50;;;;;2.72;68.45;102383.94;5076891;28;46275;-43
2023/01/21 08:16:24;;;;;;;;;52.50;37.50;;;;;2.81;67.89;102389.78;5076940;28;45317;-45
2023/01/21 08:18:49;;;;;;;;;42.25;35.00;;;;;2.86;68.50;102385.19;5076965;28;45268;-44
2023/01/21 08:21:15;;;;;;;;;46.25;33.00;;;;;2.92;67.93;102380.59;5077082;28;45833;-46
2023/01/21 08:23:40;;;;;;;;;47.75;41.75;;;;;2.91;68.02;102373.63;5076705;28;49904;-45
2023/01/21 08:26:06;;;;;;;;;49.25;37.75;;;;;3.03;67.23;102393.31;5076912;28;45409;-47
2023/01/21 08:28:32;;;;;;;;;45.75;31.50;;;;;3.06;67.22;102394.97;5076790;28;45434;-52
2023/01/21 08:31:11;;;;;;;;;43.50;34.25;;;;;3.06;66.91;102395.84;5076944;28;45353;-44
2023/01/21 08:33:38;;;;;;;;;47.25;32.50;;;;;3.11;67.08;102398.28;5076878;28;46292;-44
2023/01/21 08:36:05;;;;;;;;;47.25;36.00;;;;;3.13;66.77;102402.59;5076270;28;45629;-44
2023/01/21 08:38:33;;;;;;;;;48.50;35.00;;;;;3.17;66.46;102401.56;5076559;28;45452;-45
2023/01/21 08:40:58;;;;;;;;;37.25;36.25;;;;;3.29;66.37;102404.59;5058748;28;45388;-48
2023/01/21 08:43:24;;;;;;;;;45.25;37.25;;;;;3.43;66.21;102415.47;5076487;28;45359;-45
2023/01/21 08:45:49;;;;;;;;;42.75;34.75;;;;;3.47;66.51;102410.03;5076092;28;45271;-45
2023/01/21 08:48:15;;;;;;;;;49.25;39.00;;;;;3.62;65.33;102419.06;5075421;28;45240;-44
2023/01/21 08:50:40;;;;;;;;;46.00;35.50;;;;;3.65;65.68;102426.84;5076575;28;45310;-46
2023/01/21 08:53:06;;;;;;;;;42.75;32.00;;;;;3.66;65.09;102411.91;5076292;28;45257;-44
2023/01/21 08:55:31;;;;;;;;;50.50;39.00;;;;;3.61;65.32;102420.00;5076277;28;45220;-45
2023/01/21 08:57:57;;;;;;;;;43.25;29.00;;;;;3.17;66.23;102362.09;5076657;28;45993;-46
2023/01/21 09:00:23;;;;;;;;;36.00;31.75;;;;;3.58;65.78;102424.53;5076543;28;45435;-48
2023/01/21 09:02:49;;;;;;;;;51.50;33.75;;;;;3.55;65.49;102424.66;5076218;28;45530;-45
2023/01/21 09:05:15;;;;;;;;;52.50;36.25;;;;;3.65;65.13;102431.25;5076127;28;45387;-49
2023/01/21 09:07:40;;;;;;;;;44.50;36.75;;;;;3.72;65.17;102444.13;5076415;28;45381;-48
2023/01/21 09:10:07;;;;;;;;;42.50;33.75;;;;;3.80;65.42;102448.25;5076553;28;45324;-56
2023/01/21 09:12:32;;;;;;;;;60.25;42.50;;;;;3.79;64.98;102438.59;5075765;28;45290;-53
2023/01/21 09:14:58;;;;;;;;;46.50;39.75;;;;;3.84;65.12;102442.78;5076153;28;45476;-45
2023/01/21 09:17:23;;;;;;;;;38.00;31.50;;;;;3.88;63.75;102441.75;5076165;28;45400;-45
2023/01/21 09:19:49;;;;;;;;;29.75;29.00;;;;;4.01;64.42;102450.00;5076278;28;45233;-47
2023/01/21 09:22:15;;;;;;;;;44.50;36.75;;;;;4.16;63.10;102449.34;5075745;28;45282;-46
2023/01/21 09:24:40;;;;;;;;;44.00;33.00;;;;;4.25;63.64;102448.97;5076035;28;45319;-46
2023/01/21 09:27:06;;;;;;;;;35.50;23.00;;;;;4.24;63.25;102441.13;5076161;28;45415;-46
2023/01/21 09:29:32;;;;;;;;;46.25;34.25;;;;;4.33;63.12;102453.06;5076198;28;45361;-50
2023/01/21 09:31:57;;;;;;;;;43.50;36.25;;;;;4.31;62.41;102452.28;5075610;28;45432;-46
2023/01/21 09:34:22;;;;;;;;;46.25;38.25;;;;;4.93;63.48;102454.84;5075828;28;45392;-49
2023/01/21 09:36:48;;;;;;;;;48.75;40.75;;;;;7.12;59.52;102444.09;5075616;28;45472;-47
2023/01/21 09:39:13;;;;;;;;;47.75;39.00;;;;;8.67;55.51;102448.50;5076018;28;45383;-48
2023/01/21 09:41:47;;;;;;;;;50.00;38.00;;;;;9.45;52.89;102454.28;5075736;28;47245;-47
2023/01/21 09:44:32;;;;;;;;;43.75;38.50;;;;;10.44;51.68;102453.06;5075606;28;45539;-49
2023/01/21 09:47:20;;;;;;;;;51.00;41.25;;;;;10.06;49.98;102455.63;5075647;28;45411;-48
2023/01/21 09:49:51;;;;;;;;;49.75;40.25;;;;;9.53;51.71;102475.06;5075769;28;45596;-46
2023/01/21 09:52:25;;;;;;;;;42.25;34.25;;;;;9.20;50.51;102474.41;5075197;28;45495;-48
2023/01/21 09:54:51;;;;;;;;;43.75;33.00;;;;;8.07;53.28;102491.75;5075823;28;45774;-48
2023/01/21 09:57:35;;;;;;;;;45.75;39.25;;;;;8.04;52.45;102486.63;5075456;28;45209;-48
2023/01/21 10:00:30;;;;;;;;;39.50;34.00;;;;;7.67;54.17;102488.72;5076704;28;45392;-48
2023/01/21 10:03:15;;;;;;;;;58.00;42.00;;;;;7.24;54.18;102509.56;5078918;28;45422;-48
2023/01/21 10:06:08;;;;;;;;;65.00;44.00;;;;;7.49;55.70;102509.09;5079165;28;45341;-48
2023/01/21 10:08:39;;;;;;;;;54.50;42.75;;;;;7.48;53.69;102503.91;5078526;28;45317;-48
2023/01/21 10:11:32;;;;;;;;;40.50;35.00;;;;;7.05;54.91;102508.84;5077701;28;45469;-46
2023/01/21 10:14:09;;;;;;;;;49.25;38.50;;;;;6.59;55.92;102519.16;5078649;28;45467;-49
2023/01/21 10:16:46;;;;;;;;;58.50;41.25;;;;;6.21;56.22;102515.78;5078175;28;45813;-47
2023/01/21 10:19:18;;;;;;;;;58.00;43.75;;;;;5.86;56.65;102528.03;5078999;28;45415;-50
2023/01/21 10:21:49;;;;;;;;;46.00;37.50;;;;;5.67;57.16;102542.06;5078523;28;45269;-47
2023/01/21 10:24:20;;;;;;;;;41.25;36.00;;;;;5.71;57.10;102537.50;5078390;28;47246;-47
2023/01/21 10:26:48;;;;;;;;;56.25;37.00;;;;;6.13;56.94;102534.63;5078436;28;45429;-45
2023/01/21 10:29:16;;;;;;;;;49.50;39.00;;;;;7.81;55.26;102510.94;5078526;28;45376;-50
2023/01/21 10:31:48;;;;;;;;;43.75;35.75;;;;;7.81;53.93;102503.00;5078520;28;45859;-48
2023/01/21 10:34:17;;;;;;;;;41.75;34.00;;;;;7.63;53.19;102526.91;5078434;28;46160;-47
2023/01/21 10:36:45;;;;;;;;;41.25;38.00;;;;;7.24;53.29;102521.97;5077962;28;45452;-47
2023/01/21 10:39:38;;;;;;;;;42.00;33.00;;;;;7.94;54.42;102528.72;5078338;28;45447;-46
2023/01/21 10:42:24;;;;;;;;;44.50;35.00;;;;;8.59;51.56;102520.59;5078439;28;45423;-47
2023/01/21 10:45:19;;;;;;;;;41.50;29.25;;;;;9.61;51.80;102516.13;5077263;28;46465;-45
2023/01/21 10:47:54;;;;;;;;;46.50;39.25;;;;;9.10;50.26;102506.94;5077259;28;45404;-47
2023/01/21 10:50:25;;;;;;;;;31.50;30.75;;;;;10.32;48.32;102508.91;5078136;28;45552;-46
2023/01/21 10:52:57;;;;;;;;;35.50;33.50;;;;;10.62;47.31;102492.69;5078333;28;45391;-48
2023/01/21 10:55:25;;;;;;;;;39.00;31.00;;;;;9.82;47.75;102505.94;5077792;28;47225;-47
2023/01/21 10:58:01;;;;;;;;;34.50;31.00;;;;;8.95;48.88;102522.00;5078020;28;45485;-47
2023/01/21 11:00:33;;;;;;;;;43.25;30.75;;;;;8.62;50.26;102531.03;5077814;28;45284;-48
2023/01/21 11:03:03;;;;;;;;;44.50;30.00;;;;;9.48;48.94;102524.03;5078265;28;45408;-50
2023/01/21 11:05:29;;;;;;;;;35.00;32.00;;;;;10.74;48.35;102521.16;5077634;28;47409;-45
2023/01/21 11:07:56;;;;;;;;;48.00;31.50;;;;;11.62;45.33;102518.56;5077543;28;45357;-46
2023/01/21 11:10:24;;;;;;;;;39.25;30.00;;;;;11.65;46.70;102521.00;5077608;28;45443;-45
2023/01/21 11:12:52;;;;;;;;;36.25;25.50;;;;;11.90;46.07;102530.78;5077294;28;45410;-48
2023/01/21 11:15:19;;;;;;;;;40.00;28.50;;;;;12.29;43.02;102526.16;5077862;28;45384;-45
2023/01/21 11:17:47;;;;;;;;;39.50;29.50;;;;;13.13;42.43;102525.06;5077371;28;45520;-45
2023/01/21 11:20:22;;;;;;;;;36.50;30.50;;;;;11.70;44.29;102524.19;5077856;28;45316;-48
2023/01/21 11:22:49;;;;;;;;;40.00;27.50;;;;;10.79;45.55;102526.16;5078105;28;45458;-46
2023/01/21 11:25:34;;;;;;;;;37.00;28.00;;;;;10.48;45.59;102537.06;5077424;28;45347;-46
2023/01/21 11:28:00;;;;;;;;;35.00;24.00;;;;;10.76;46.04;102531.72;5077080;28;45344;-47